Time;durP1;ratioP1;P1;durP2;ratioP2;P2;SDS_P1;SDS_P2;PMS_P1;PMS_P2;Temp;Humidity;BMP_temperature;BMP_pressure;BME280_temperature;BME280_humidity;BME280_pressure;Samples;Min_cycle;Max_cycle;Signal;HPM_P1;HPM_P2
2023/05/17 00:00:12;;;;;;;;;;;;;;;15.74;nan;101816.97;5048864;28;19925;-81
2023/05/17 00:02:38;;;;;;;;;;;;;;;15.71;nan;101810.19;5045994;28;19930;-80
2023/05/17 00:05:03;;;;;;;;;;;;;;;15.74;nan;101814.25;5047881;28;19956;-80
2023/05/17 00:07:29;;;;;;;;;;;;;;;15.71;nan;101817.47;5045862;28;20376;-80
2023/05/17 00:09:54;;;;;;;;;;;;;;;15.70;nan;101813.16;5045148;28;20524;-80
2023/05/17 00:12:20;;;;;;;;;;;;;;;15.70;nan;101815.84;5050661;28;19916;-80
2023/05/17 00:14:45;;;;;;;;;;;;;;;15.69;nan;101811.53;5047472;28;19983;-80
2023/05/17 00:17:10;;;;;;;;;;;;;;;15.67;nan;101813.66;5044462;28;19927;-80
2023/05/17 00:19:36;;;;;;;;;;;;;;;15.63;nan;101810.66;5045131;28;19917;-80
2023/05/17 00:22:01;;;;;;;;;;;;;;;15.61;nan;101812.78;5078856;28;19921;-81
2023/05/17 00:24:26;;;;;;;;;;;;;;;15.54;nan;101817.56;5078627;28;19971;-80
2023/05/17 00:26:51;;;;;;;;;;;;;;;15.52;nan;101805.38;5047191;28;20051;-80
2023/05/17 00:29:17;;;;;;;;;;;;;;;15.48;nan;101809.66;5042154;28;19921;-80
2023/05/17 00:31:42;;;;;;;;;;;;;;;15.47;nan;101811.56;5049555;28;19917;-80
2023/05/17 00:34:07;;;;;;;;;;;;;;;15.49;nan;101805.91;5041144;28;19935;-80
2023/05/17 00:36:33;;;;;;;;;;;;;;;15.43;nan;101805.00;5046474;28;19921;-80
2023/05/17 00:38:58;;;;;;;;;;;;;;;15.39;nan;101803.91;5043819;28;20383;-80
2023/05/17 00:41:24;;;;;;;;;;;;;;;15.39;nan;101803.91;5048486;28;20331;-80
2023/05/17 00:43:49;;;;;;;;;;;;;;;15.37;nan;101798.75;5044850;28;19921;-80
2023/05/17 00:46:15;;;;;;;;;;;;;;;15.35;nan;101803.59;5047437;28;19917;-80
2023/05/17 00:48:40;;;;;;;;;;;;;;;15.36;nan;101805.22;5045165;28;19924;-80
2023/05/17 00:51:06;;;;;;;;;;;;;;;15.34;nan;101807.38;5047084;28;19917;-80
2023/05/17 00:53:32;;;;;;;;;;;;;;;15.33;nan;101805.72;5044649;28;20519;-80
2023/05/17 00:55:58;;;;;;;;;;;;;;;15.35;nan;101794.69;5046739;28;19921;-80
2023/05/17 00:58:24;;;;;;;;;;;;;;;15.34;nan;101803.84;5046641;28;19921;-80
2023/05/17 01:00:49;;;;;;;;;;;;;;;15.37;nan;101808.72;5042426;28;20553;-81
2023/05/17 01:03:15;;;;;;;;;;;;;;;15.35;nan;101809.00;5042977;28;19936;-80
2023/05/17 01:05:40;;;;;;;;;;;;;;;15.33;nan;101808.44;5042952;28;19925;-80
2023/05/17 01:08:05;;;;;;;;;;;;;;;15.30;nan;101808.94;5046609;28;19924;-80
2023/05/17 01:10:44;;;;;;;;;;;;;;;15.29;nan;101807.31;5044122;28;19928;-80
2023/05/17 01:13:23;;;;;;;;;;;;;;;15.28;nan;101811.09;5042970;28;19917;-80
2023/05/17 01:15:53;;;;;;;;;;;;;;;15.28;nan;101811.09;5045045;28;19924;-80
2023/05/17 01:18:34;;;;;;;;;;;;;;;15.23;nan;101808.31;5046243;28;20380;-80
2023/05/17 01:21:00;;;;;;;;;;;;;;;15.23;nan;101813.72;5046594;28;19921;-81
2023/05/17 01:23:40;;;;;;;;;;;;;;;15.18;nan;101813.66;5046439;28;19931;-80
2023/05/17 01:26:09;;;;;;;;;;;;;;;15.08;nan;101817.06;5046038;28;19970;-80
2023/05/17 01:28:37;;;;;;;;;;;;;;;15.03;nan;101818.88;5046707;28;19917;-80
2023/05/17 01:31:02;;;;;;;;;;;;;;;15.01;nan;101819.13;5044506;28;20514;-81
2023/05/17 01:33:28;;;;;;;;;;;;;;;15.01;nan;101807.53;5044114;28;19921;-80
2023/05/17 01:35:53;;;;;;;;;;;;;;;14.96;nan;101800.19;5043455;28;19923;-80
2023/05/17 01:38:19;;;;;;;;;;;;;;;14.94;nan;101809.59;5046455;28;19921;-80
2023/05/17 01:40:51;;;;;;;;;;;;;;;14.91;nan;101812.81;5044243;28;19925;-80
2023/05/17 01:43:26;;;;;;;;;;;;;;;14.88;nan;101810.59;5045395;28;19956;-80
2023/05/17 01:45:54;;;;;;;;;;;;;;;14.85;nan;101816.50;5044800;28;20408;-80
2023/05/17 01:48:22;;;;;;;;;;;;;;;14.85;nan;101825.41;5045113;28;19920;-80
2023/05/17 01:50:53;;;;;;;;;;;;;;;14.80;nan;101825.34;5044651;28;19921;-80
2023/05/17 01:53:28;;;;;;;;;;;;;;;14.80;nan;101833.44;5042724;28;19917;-80
2023/05/17 01:55:55;;;;;;;;;;;;;;;14.77;nan;101821.25;5043711;28;19986;-81
2023/05/17 01:58:23;;;;;;;;;;;;;;;14.76;nan;101826.91;5044687;28;19921;-80
2023/05/17 02:00:51;;;;;;;;;;;;;;;14.72;nan;101823.91;5044198;28;19928;-80
2023/05/17 02:03:17;;;;;;;;;;;;;;;14.70;nan;101833.28;5044251;28;19979;-80
2023/05/17 02:05:42;;;;;;;;;;;;;;;14.71;nan;101832.22;5043726;28;19924;-80
2023/05/17 02:08:07;;;;;;;;;;;;;;;14.67;nan;101837.31;5043335;28;19917;-80
2023/05/17 02:10:33;;;;;;;;;;;;;;;14.66;nan;101837.56;5044800;28;20011;-80
2023/05/17 02:12:58;;;;;;;;;;;;;;;14.65;nan;101831.34;5044038;28;19917;-80
2023/05/17 02:15:23;;;;;;;;;;;;;;;14.67;nan;101825.69;5043055;28;19920;-79
2023/05/17 02:17:49;;;;;;;;;;;;;;;14.72;nan;101829.31;5043615;28;20334;-80
2023/05/17 02:20:14;;;;;;;;;;;;;;;14.76;nan;101822.34;5043633;28;20376;-80
2023/05/17 02:22:39;;;;;;;;;;;;;;;14.75;nan;101822.59;5044160;28;20404;-80
2023/05/17 02:25:05;;;;;;;;;;;;;;;14.76;nan;101827.72;5044718;28;19921;-80
2023/05/17 02:27:31;;;;;;;;;;;;;;;14.74;nan;101827.16;5044328;28;20443;-80
2023/05/17 02:29:56;;;;;;;;;;;;;;;14.72;nan;101828.44;5042618;28;19932;-80
2023/05/17 02:32:21;;;;;;;;;;;;;;;14.73;nan;101822.84;5043918;28;19955;-80
2023/05/17 02:34:47;;;;;;;;;;;;;;;14.71;nan;101822.25;5043493;28;20486;-80
2023/05/17 02:37:12;;;;;;;;;;;;;;;14.65;nan;101823.25;5044655;28;20007;-80
2023/05/17 02:39:37;;;;;;;;;;;;;;;14.64;nan;101821.63;5042984;28;19980;-80
2023/05/17 02:42:03;;;;;;;;;;;;;;;14.58;nan;101828.00;5044266;28;19924;-80
2023/05/17 02:44:28;;;;;;;;;;;;;;;14.60;nan;101820.50;5046252;28;19924;-80
2023/05/17 02:46:53;;;;;;;;;;;;;;;14.58;nan;101817.22;5046289;28;20087;-80
2023/05/17 02:49:19;;;;;;;;;;;;;;;14.55;nan;101827.69;5047134;28;19927;-80
2023/05/17 02:51:44;;;;;;;;;;;;;;;14.53;nan;101827.91;5046327;28;19947;-80
2023/05/17 02:54:10;;;;;;;;;;;;;;;14.54;nan;101826.03;5047599;28;19917;-80
2023/05/17 02:56:35;;;;;;;;;;;;;;;14.57;nan;101820.19;5048236;28;19917;-80
2023/05/17 02:59:00;;;;;;;;;;;;;;;14.53;nan;101825.22;5046749;28;20287;-80
2023/05/17 03:01:26;;;;;;;;;;;;;;;14.51;nan;101830.88;5043283;28;19928;-80
2023/05/17 03:03:52;;;;;;;;;;;;;;;14.44;nan;101827.53;5048165;28;19921;-80
2023/05/17 03:06:17;;;;;;;;;;;;;;;14.39;nan;101829.31;5045067;28;20270;-79
2023/05/17 03:08:42;;;;;;;;;;;;;;;14.31;nan;101832.41;5045376;28;20351;-79
2023/05/17 03:11:07;;;;;;;;;;;;;;;14.33;nan;101828.41;5048393;28;20217;-79
2023/05/17 03:13:33;;;;;;;;;;;;;;;14.33;nan;101830.28;5045860;28;20652;-79
2023/05/17 03:15:58;;;;;;;;;;;;;;;14.33;nan;101838.38;5048179;28;20383;-80
2023/05/17 03:18:23;;;;;;;;;;;;;;;14.33;nan;101835.69;5046236;28;20155;-80
2023/05/17 03:20:49;;;;;;;;;;;;;;;14.35;nan;101828.97;5048744;28;19932;-79
2023/05/17 03:23:14;;;;;;;;;;;;;;;14.37;nan;101829.56;5047474;28;20522;-80
2023/05/17 03:25:40;;;;;;;;;;;;;;;14.43;nan;101841.25;5044957;28;20011;-80
2023/05/17 03:28:05;;;;;;;;;;;;;;;14.45;nan;101833.75;5045807;28;20561;-80
2023/05/17 03:30:30;;;;;;;;;;;;;;;14.47;nan;101835.13;5047901;28;20007;-80
2023/05/17 03:32:56;;;;;;;;;;;;;;;14.52;nan;101842.47;5046087;28;19948;-80
2023/05/17 03:35:21;;;;;;;;;;;;;;;14.59;nan;101840.44;5046196;28;20402;-79
2023/05/17 03:37:46;;;;;;;;;;;;;;;14.58;nan;101841.50;5046798;28;19924;-80
2023/05/17 03:40:12;;;;;;;;;;;;;;;14.58;nan;101838.81;5045576;28;20360;-80
2023/05/17 03:42:37;;;;;;;;;;;;;;;14.61;nan;101837.50;5048294;28;19916;-80
2023/05/17 03:45:03;;;;;;;;;;;;;;;14.64;nan;101840.50;5045387;28;19927;-79
2023/05/17 03:47:28;;;;;;;;;;;;;;;14.71;nan;101848.41;5046631;28;20388;-79
2023/05/17 03:49:54;;;;;;;;;;;;;;;14.73;nan;101852.50;5048052;28;20337;-79
2023/05/17 03:52:19;;;;;;;;;;;;;;;14.77;nan;101850.94;5045445;28;19916;-79
2023/05/17 03:54:44;;;;;;;;;;;;;;;14.78;nan;101855.28;5046160;28;20019;-79
2023/05/17 03:57:10;;;;;;;;;;;;;;;14.84;nan;101860.72;5042358;28;19936;-79
2023/05/17 03:59:35;;;;;;;;;;;;;;;14.85;nan;101867.75;5047706;28;20372;-79
2023/05/17 04:02:00;;;;;;;;;;;;;;;14.89;nan;101868.88;5044727;28;20450;-79
2023/05/17 04:04:26;;;;;;;;;;;;;;;14.91;nan;101869.47;5046316;28;19948;-79
2023/05/17 04:06:51;;;;;;;;;;;;;;;15.00;nan;101881.44;5042954;28;19975;-79
2023/05/17 04:09:16;;;;;;;;;;;;;;;15.02;nan;101876.63;5046215;28;19916;-80
2023/05/17 04:11:42;;;;;;;;;;;;;;;15.03;nan;101879.06;5041209;28;19986;-79
2023/05/17 04:14:07;;;;;;;;;;;;;;;15.08;nan;101873.75;5042995;28;20007;-80
2023/05/17 04:16:33;;;;;;;;;;;;;;;15.15;nan;101875.44;5045255;28;19974;-80
2023/05/17 04:19:01;;;;;;;;;;;;;;;15.18;nan;101883.84;5045633;28;19924;-79
2023/05/17 04:21:26;;;;;;;;;;;;;;;15.24;nan;101879.31;5045192;28;19951;-78
2023/05/17 04:23:52;;;;;;;;;;;;;;;15.27;nan;101892.34;5046859;28;19925;-79
2023/05/17 04:26:17;;;;;;;;;;;;;;;15.33;nan;101889.44;5044718;28;19963;-79
2023/05/17 04:28:42;;;;;;;;;;;;;;;15.37;nan;101890.56;5045412;28;19921;-79
2023/05/17 04:31:08;;;;;;;;;;;;;;;15.43;nan;101889.53;5045310;28;19916;-81
2023/05/17 04:33:34;;;;;;;;;;;;;;;15.45;nan;101900.13;5046790;28;19955;-80
2023/05/17 04:35:59;;;;;;;;;;;;;;;15.45;nan;101904.72;5043652;28;20422;-80
2023/05/17 04:38:25;;;;;;;;;;;;;;;15.47;nan;101907.97;5042572;28;19929;-79
2023/05/17 04:40:50;;;;;;;;;;;;;;;15.50;nan;101916.38;5044956;28;20368;-80
2023/05/17 04:43:15;;;;;;;;;;;;;;;15.54;nan;101927.50;5043778;28;19948;-79
2023/05/17 04:45:41;;;;;;;;;;;;;;;15.58;nan;101928.59;5043216;28;19920;-79
2023/05/17 04:48:07;;;;;;;;;;;;;;;15.59;nan;101935.69;5045052;28;19925;-80
2023/05/17 04:50:32;;;;;;;;;;;;;;;15.60;nan;101940.00;5045748;28;19917;-80
2023/05/17 04:52:57;;;;;;;;;;;;;;;15.58;nan;101947.53;5045682;28;19925;-80
2023/05/17 04:55:23;;;;;;;;;;;;;;;15.63;nan;101955.72;5044615;28;19971;-79
2023/05/17 04:57:48;;;;;;;;;;;;;;;15.66;nan;101960.63;5043453;28;19931;-80
2023/05/17 05:00:17;;;;;;;;;;;;;;;15.71;nan;101966.09;5042629;28;19917;-80
2023/05/17 05:02:43;;;;;;;;;;;;;;;15.77;nan;101962.34;5041696;28;19916;-79
2023/05/17 05:05:09;;;;;;;;;;;;;;;15.83;nan;101968.66;5044279;28;19916;-81
2023/05/17 05:07:35;;;;;;;;;;;;;;;15.89;nan;101976.56;5040864;28;19986;-79
2023/05/17 05:10:00;;;;;;;;;;;;;;;15.98;nan;101976.94;5045693;28;20388;-80
2023/05/17 05:12:25;;;;;;;;;;;;;;;16.06;nan;101986.47;5042844;28;19924;-80
2023/05/17 05:14:51;;;;;;;;;;;;;;;16.20;nan;101985.00;5042043;28;19924;-80
2023/05/17 05:17:16;;;;;;;;;;;;;;;16.23;nan;101987.19;5041742;28;20299;-80
2023/05/17 05:19:42;;;;;;;;;;;;;;;16.34;nan;101999.75;5046288;28;19973;-81
2023/05/17 05:22:07;;;;;;;;;;;;;;;16.41;nan;102007.63;5044292;28;20274;-80
2023/05/17 05:24:32;;;;;;;;;;;;;;;16.44;nan;102002.53;5044460;28;20424;-80
2023/05/17 05:26:58;;;;;;;;;;;;;;;16.49;nan;102016.09;5042731;28;19921;-80
2023/05/17 05:29:23;;;;;;;;;;;;;;;16.62;nan;102022.97;5041316;28;19925;-80
2023/05/17 05:31:48;;;;;;;;;;;;;;;16.64;nan;102018.13;5046214;28;20054;-81
2023/05/17 05:34:13;;;;;;;;;;;;;;;16.68;nan;102019.25;5045912;28;19924;-81
2023/05/17 05:36:39;;;;;;;;;;;;;;;16.75;nan;102014.47;5045939;28;19920;-80
2023/05/17 05:39:04;;;;;;;;;;;;;;;16.82;nan;102006.13;5046261;28;19921;-80
2023/05/17 05:41:30;;;;;;;;;;;;;;;16.88;nan;102008.63;5046090;28;19923;-79
2023/05/17 05:43:55;;;;;;;;;;;;;;;17.01;nan;102010.06;5046677;28;19923;-79
2023/05/17 05:46:20;;;;;;;;;;;;;;;17.16;nan;101993.09;5047015;28;20433;-80
2023/05/17 05:48:46;;;;;;;;;;;;;;;17.31;nan;102003.19;5046371;28;19931;-80
2023/05/17 05:51:11;;;;;;;;;;;;;;;17.32;nan;102007.53;5047083;28;19927;-81
2023/05/17 05:53:37;;;;;;;;;;;;;;;17.35;nan;102007.81;5046511;28;19928;-79
2023/05/17 05:56:02;;;;;;;;;;;;;;;17.38;nan;102011.91;5046542;28;20382;-80
2023/05/17 05:58:28;;;;;;;;;;;;;;;17.41;nan;102022.22;5046479;28;19924;-80
2023/05/17 06:00:53;;;;;;;;;;;;;;;17.46;nan;102024.97;5046278;28;20000;-80
2023/05/17 06:03:19;;;;;;;;;;;;;;;17.55;nan;102026.09;5046762;28;20183;-79
2023/05/17 06:05:44;;;;;;;;;;;;;;;17.61;nan;102019.63;5046875;28;19955;-79
2023/05/17 06:08:09;;;;;;;;;;;;;;;17.65;nan;102022.63;5046602;28;19979;-79
2023/05/17 06:10:35;;;;;;;;;;;;;;;17.65;nan;102033.47;5046907;28;19917;-79
2023/05/17 06:13:00;;;;;;;;;;;;;;;17.64;nan;102029.94;5046359;28;19932;-80
2023/05/17 06:15:26;;;;;;;;;;;;;;;17.68;nan;102035.66;5078765;28;19932;-80
2023/05/17 06:17:51;;;;;;;;;;;;;;;17.63;nan;102035.63;5046343;28;19940;-80
2023/05/17 06:20:16;;;;;;;;;;;;;;;17.60;nan;102044.28;5048304;28;20388;-80
2023/05/17 06:22:42;;;;;;;;;;;;;;;17.59;nan;102046.16;5050674;28;19921;-81
2023/05/17 06:25:09;;;;;;;;;;;;;;;17.61;nan;102052.16;5050422;28;20384;-80
2023/05/17 06:27:34;;;;;;;;;;;;;;;17.73;nan;102041.09;5050723;28;19917;-79
2023/05/17 06:29:59;;;;;;;;;;;;;;;17.80;nan;102039.78;5050458;28;20292;-79
2023/05/17 06:32:25;;;;;;;;;;;;;;;17.87;nan;102044.97;5050580;28;20091;-79
2023/05/17 06:34:50;;;;;;;;;;;;;;;18.01;nan;102029.84;5050531;28;20149;-80
2023/05/17 06:37:16;;;;;;;;;;;;;;;18.15;nan;102038.28;5050493;28;20063;-79
2023/05/17 06:39:41;;;;;;;;;;;;;;;18.23;nan;102045.06;5049951;28;19916;-79
2023/05/17 06:42:06;;;;;;;;;;;;;;;18.28;nan;102045.06;5050787;28;19917;-79
2023/05/17 06:44:32;;;;;;;;;;;;;;;18.30;nan;102048.34;5049674;28;19983;-79
2023/05/17 06:46:59;;;;;;;;;;;;;;;18.38;nan;102050.53;5050196;28;19933;-81
2023/05/17 06:49:25;;;;;;;;;;;;;;;18.39;nan;102049.44;5050259;28;20328;-79
2023/05/17 06:51:50;;;;;;;;;;;;;;;18.41;nan;102047.28;5048038;28;19927;-80
2023/05/17 06:54:18;;;;;;;;;;;;;;;18.47;nan;102058.94;5051295;28;19916;-79
2023/05/17 06:56:43;;;;;;;;;;;;;;;18.50;nan;102072.00;5050313;28;20003;-79
2023/05/17 06:59:09;;;;;;;;;;;;;;;18.35;nan;102070.88;5051213;28;20015;-79
2023/05/17 07:01:34;;;;;;;;;;;;;;;18.28;nan;102073.03;5050148;28;20292;-79
2023/05/17 07:04:00;;;;;;;;;;;;;;;18.37;nan;102079.56;5050972;28;19924;-80
2023/05/17 07:06:25;;;;;;;;;;;;;;;18.55;nan;102082.88;5051282;28;19913;-79
2023/05/17 07:08:50;;;;;;;;;;;;;;;18.55;nan;102080.16;5049893;28;20428;-80
2023/05/17 07:11:16;;;;;;;;;;;;;;;18.52;nan;102086.13;5051400;28;20393;-80
2023/05/17 07:13:41;;;;;;;;;;;;;;;18.62;nan;102094.25;5051001;28;19924;-80
2023/05/17 07:16:07;;;;;;;;;;;;;;;18.66;nan;102098.91;5050485;28;19917;-78
2023/05/17 07:18:32;;;;;;;;;;;;;;;18.83;nan;102101.38;5050139;28;19932;-80
2023/05/17 07:20:58;;;;;;;;;;;;;;;18.95;nan;102096.50;5047697;28;19966;-80
2023/05/17 07:23:23;;;;;;;;;;;;;;;19.11;nan;102099.22;5049892;28;19970;-80
2023/05/17 07:25:48;;;;;;;;;;;;;;;19.14;nan;102098.66;5048170;28;20390;-80
2023/05/17 07:28:14;;;;;;;;;;;;;;;19.24;nan;102091.34;5049987;28;20384;-79
2023/05/17 07:30:39;;;;;;;;;;;;;;;19.33;nan;102108.69;5048020;28;19913;-80
2023/05/17 07:33:04;;;;;;;;;;;;;;;19.51;nan;102109.22;5047038;28;19920;-81
2023/05/17 07:35:30;;;;;;;;;;;;;;;19.64;nan;102107.88;5044711;28;19921;-80
2023/05/17 07:37:55;;;;;;;;;;;;;;;19.79;nan;102105.94;5047392;28;19931;-80
2023/05/17 07:40:20;;;;;;;;;;;;;;;19.97;nan;102112.66;5047592;28;21203;-80
2023/05/17 07:42:46;;;;;;;;;;;;;;;20.09;nan;102118.56;5047190;28;19924;-82
2023/05/17 07:45:11;;;;;;;;;;;;;;;20.13;nan;102121.56;5047095;28;20604;-81
2023/05/17 07:47:36;;;;;;;;;;;;;;;20.08;nan;102125.13;5047412;28;20388;-81
2023/05/17 07:50:02;;;;;;;;;;;;;;;20.04;nan;102132.22;5046729;28;19920;-79
2023/05/17 07:52:28;;;;;;;;;;;;;;;19.93;nan;102152.41;5045658;28;20450;-79
2023/05/17 07:54:53;;;;;;;;;;;;;;;19.81;nan;102143.72;5046719;28;20395;-80
2023/05/17 07:57:18;;;;;;;;;;;;;;;19.91;nan;102146.38;5047205;28;20335;-79
2023/05/17 07:59:44;;;;;;;;;;;;;;;20.05;nan;102142.00;5046886;28;20411;-79
2023/05/17 08:02:09;;;;;;;;;;;;;;;20.21;nan;102151.72;5046944;28;19917;-79
2023/05/17 08:04:35;;;;;;;;;;;;;;;20.31;nan;102155.53;5046340;28;19933;-81
2023/05/17 08:07:00;;;;;;;;;;;;;;;20.41;nan;102166.38;5047425;28;19917;-79
2023/05/17 08:09:26;;;;;;;;;;;;;;;20.57;nan;102176.09;5046397;28;19917;-79
2023/05/17 08:11:51;;;;;;;;;;;;;;;20.69;nan;102178.50;5046876;28;20372;-78
2023/05/17 08:14:16;;;;;;;;;;;;;;;20.66;nan;102184.50;5046273;28;20003;-79
2023/05/17 08:16:42;;;;;;;;;;;;;;;20.64;nan;102187.47;5047029;28;20284;-80
2023/05/17 08:19:11;;;;;;;;;;;;;;;20.69;nan;102182.03;5047655;28;20002;-81
2023/05/17 08:21:37;;;;;;;;;;;;;;;20.72;nan;102178.72;5042943;28;19917;-80
2023/05/17 08:24:02;;;;;;;;;;;;;;;20.79;nan;102172.97;5047936;28;20007;-80
2023/05/17 08:26:28;;;;;;;;;;;;;;;20.97;nan;102179.66;5047442;28;20453;-80
2023/05/17 08:28:53;;;;;;;;;;;;;;;21.12;nan;102182.28;5048658;28;19955;-79
2023/05/17 08:31:18;;;;;;;;;;;;;;;21.31;nan;102185.97;5047879;28;19968;-80
2023/05/17 08:33:43;;;;;;;;;;;;;;;21.46;nan;102178.75;5047447;28;19928;-80
2023/05/17 08:36:09;;;;;;;;;;;;;;;21.54;nan;102178.94;5041983;28;19924;-80
2023/05/17 08:38:34;;;;;;;;;;;;;;;21.51;nan;102186.88;5044884;28;20011;-81
2023/05/17 08:41:00;;;;;;;;;;;;;;;21.50;nan;102177.88;5044949;28;20337;-79
2023/05/17 08:43:27;;;;;;;;;;;;;;;21.42;nan;102182.06;5047202;28;19925;-80
2023/05/17 08:45:53;;;;;;;;;;;;;;;21.59;nan;102180.81;5047480;28;20215;-81
2023/05/17 08:48:21;;;;;;;;;;;;;;;21.78;nan;102176.25;5047964;28;19916;-79
2023/05/17 08:50:49;;;;;;;;;;;;;;;21.90;nan;102190.34;5044746;28;19924;-80
2023/05/17 08:53:15;;;;;;;;;;;;;;;21.92;nan;102181.84;5046204;28;19939;-79
2023/05/17 08:55:43;;;;;;;;;;;;;;;21.90;nan;102176.69;5045052;28;19917;-80
2023/05/17 08:58:09;;;;;;;;;;;;;;;22.00;nan;102190.19;5048172;28;20011;-79
2023/05/17 09:00:35;;;;;;;;;;;;;;;22.12;nan;102187.09;5047995;28;19916;-79
2023/05/17 09:03:00;;;;;;;;;;;;;;;22.27;nan;102197.84;5047208;28;19923;-78
2023/05/17 09:05:26;;;;;;;;;;;;;;;22.37;nan;102191.44;5048518;28;19924;-78
2023/05/17 09:07:52;;;;;;;;;;;;;;;22.44;nan;102191.91;5048378;28;19925;-79
2023/05/17 09:10:18;;;;;;;;;;;;;;;22.49;nan;102210.13;5049425;28;20361;-83
2023/05/17 09:12:44;;;;;;;;;;;;;;;22.58;nan;102202.91;5049300;28;19980;-79
2023/05/17 09:15:17;;;;;;;;;;;;;;;22.67;nan;102184.75;5049532;28;19946;-80
2023/05/17 09:17:43;;;;;;;;;;;;;;;22.69;nan;102195.38;5046683;28;19928;-80
2023/05/17 09:20:09;;;;;;;;;;;;;;;22.64;nan;102181.81;5047114;28;20285;-79
2023/05/17 09:22:35;;;;;;;;;;;;;;;22.55;nan;102192.56;5042060;28;19917;-79
2023/05/17 09:25:03;;;;;;;;;;;;;;;22.66;nan;102187.78;5045024;28;19921;-79
2023/05/17 09:27:29;;;;;;;;;;;;;;;22.74;nan;102181.66;5044705;28;20003;-81
2023/05/17 09:29:55;;;;;;;;;;;;;;;22.81;nan;102191.13;5043018;28;20167;-81
2023/05/17 09:32:20;;;;;;;;;;;;;;;22.86;nan;102202.00;5044626;28;19921;-81
2023/05/17 09:34:47;;;;;;;;;;;;;;;22.90;nan;102189.34;5044750;28;20474;-80
2023/05/17 09:37:14;;;;;;;;;;;;;;;22.90;nan;102188.56;5044915;28;19928;-81
2023/05/17 09:39:40;;;;;;;;;;;;;;;22.87;nan;102189.97;5045090;28;19921;-79
2023/05/17 09:42:05;;;;;;;;;;;;;;;22.98;nan;102195.25;5044715;28;19917;-81
2023/05/17 09:44:30;;;;;;;;;;;;;;;23.06;nan;102195.41;5044557;28;19917;-78
2023/05/17 09:46:56;;;;;;;;;;;;;;;23.09;nan;102196.72;5044011;28;19921;-79
2023/05/17 09:49:25;;;;;;;;;;;;;;;23.12;nan;102199.69;5044985;28;20494;-80
2023/05/17 09:51:50;;;;;;;;;;;;;;;23.05;nan;102207.44;5044347;28;20020;-80
2023/05/17 09:54:19;;;;;;;;;;;;;;;23.12;nan;102220.75;5043941;28;20003;-80
2023/05/17 09:56:51;;;;;;;;;;;;;;;23.28;nan;102221.31;5076632;28;20008;-81
2023/05/17 09:59:18;;;;;;;;;;;;;;;23.29;nan;102218.28;5044429;28;19931;-79
2023/05/17 10:01:44;;;;;;;;;;;;;;;23.15;nan;102212.75;5044215;28;20360;-80
2023/05/17 10:04:10;;;;;;;;;;;;;;;23.08;nan;102220.53;5044650;28;20121;-80
2023/05/17 10:06:37;;;;;;;;;;;;;;;23.00;nan;102221.22;5044443;28;19952;-79
2023/05/17 10:09:05;;;;;;;;;;;;;;;22.86;nan;102220.31;5044435;28;20335;-81
2023/05/17 10:11:33;;;;;;;;;;;;;;;22.78;nan;102226.41;5044493;28;20027;-81
2023/05/17 10:14:04;;;;;;;;;;;;;;;22.86;nan;102203.91;5044750;28;19921;-79
2023/05/17 10:16:33;;;;;;;;;;;;;;;23.21;nan;102214.31;5044510;28;19921;-80
2023/05/17 10:18:59;;;;;;;;;;;;;;;23.31;nan;102204.31;5076127;28;19928;-80
2023/05/17 10:21:25;;;;;;;;;;;;;;;23.47;nan;102220.16;5042551;28;20388;-80
2023/05/17 10:23:51;;;;;;;;;;;;;;;23.51;nan;102226.66;5043124;28;19969;-80
2023/05/17 10:26:17;;;;;;;;;;;;;;;23.57;nan;102232.09;5044013;28;20063;-80
2023/05/17 10:28:45;;;;;;;;;;;;;;;23.64;nan;102224.28;5043964;28;20008;-81
2023/05/17 10:31:11;;;;;;;;;;;;;;;23.65;nan;102226.72;5043348;28;19920;-79
2023/05/17 10:33:38;;;;;;;;;;;;;;;23.75;nan;102223.00;5045096;28;19936;-79
2023/05/17 10:36:05;;;;;;;;;;;;;;;23.85;nan;102224.72;5043534;28;19921;-79
2023/05/17 10:38:30;;;;;;;;;;;;;;;23.95;nan;102235.50;5044518;28;19946;-79
2023/05/17 10:40:57;;;;;;;;;;;;;;;24.13;nan;102220.91;5045120;28;19916;-81
2023/05/17 10:43:23;;;;;;;;;;;;;;;24.23;nan;102217.97;5074352;28;19921;-80
2023/05/17 10:45:49;;;;;;;;;;;;;;;24.24;nan;102221.53;5045284;28;19925;-82
2023/05/17 10:48:17;;;;;;;;;;;;;;;24.17;nan;102224.66;5046423;28;19944;-79
2023/05/17 10:50:45;;;;;;;;;;;;;;;24.25;nan;102231.38;5044823;28;20372;-79
2023/05/17 10:53:10;;;;;;;;;;;;;;;24.39;nan;102222.03;5045665;28;19920;-80
2023/05/17 10:55:40;;;;;;;;;;;;;;;24.49;nan;102239.41;5045823;28;19942;-82
2023/05/17 10:58:14;;;;;;;;;;;;;;;24.59;nan;102228.19;5046007;28;20384;-80
2023/05/17 11:00:40;;;;;;;;;;;;;;;24.83;nan;102220.56;5045306;28;20300;-83
2023/05/17 11:03:12;;;;;;;;;;;;;;;25.04;nan;102218.19;5045461;28;20376;-82
2023/05/17 11:05:40;;;;;;;;;;;;;;;24.91;nan;102219.81;5047404;28;20061;-80
2023/05/17 11:08:15;;;;;;;;;;;;;;;24.97;nan;102224.06;5049827;28;19962;-81
2023/05/17 11:11:13;;;;;;;;;;;;;;;24.99;nan;102216.38;5044712;28;19928;-79
2023/05/17 11:13:53;;;;;;;;;;;;;;;24.97;nan;102218.59;5032963;28;20554;-79
2023/05/17 11:16:24;;;;;;;;;;;;;;;25.05;nan;102214.31;5047114;28;19921;-80
2023/05/17 11:18:50;;;;;;;;;;;;;;;25.16;nan;102220.38;5044747;28;19960;-79
2023/05/17 11:21:16;;;;;;;;;;;;;;;25.19;nan;102223.31;5043885;28;20390;-81
2023/05/17 11:23:42;;;;;;;;;;;;;;;25.38;nan;102230.53;5044490;28;20574;-82
2023/05/17 11:26:27;;;;;;;;;;;;;;;25.55;nan;102231.47;5046551;28;19920;-81
2023/05/17 11:29:01;;;;;;;;;;;;;;;25.35;nan;102245.69;5044816;28;20415;-80
2023/05/17 11:31:30;;;;;;;;;;;;;;;25.40;nan;102248.31;5042404;28;20153;-81
2023/05/17 11:33:57;;;;;;;;;;;;;;;25.59;nan;102242.63;5045212;28;19971;-80
2023/05/17 11:36:22;;;;;;;;;;;;;;;25.77;nan;102236.13;5046736;28;19955;-80
2023/05/17 11:38:49;;;;;;;;;;;;;;;25.89;nan;102233.63;5046116;28;19925;-78
2023/05/17 11:41:18;;;;;;;;;;;;;;;26.06;nan;102246.59;5046716;28;19943;-80
2023/05/17 11:43:44;;;;;;;;;;;;;;;26.11;nan;102224.50;5045030;28;19923;-79
2023/05/17 11:46:17;;;;;;;;;;;;;;;26.08;nan;102236.13;5043498;28;19917;-81
2023/05/17 11:48:44;;;;;;;;;;;;;;;25.94;nan;102240.91;5044534;28;19931;-80
2023/05/17 11:51:12;;;;;;;;;;;;;;;25.87;nan;102237.81;5048450;28;19917;-79
2023/05/17 11:53:38;;;;;;;;;;;;;;;25.83;nan;102242.28;5046472;28;19916;-80
2023/05/17 11:56:04;;;;;;;;;;;;;;;25.88;nan;102244.91;5049065;28;20379;-80
2023/05/17 11:58:30;;;;;;;;;;;;;;;26.02;nan;102247.53;5048199;28;20015;-80
2023/05/17 12:00:57;;;;;;;;;;;;;;;25.99;nan;102254.47;5045703;28;19921;-80
2023/05/17 12:03:23;;;;;;;;;;;;;;;26.09;nan;102258.91;5049606;28;19931;-81
2023/05/17 12:06:05;;;;;;;;;;;;;;;26.23;nan;102256.06;5048483;28;19925;-80
2023/05/17 12:08:33;;;;;;;;;;;;;;;25.93;nan;102266.72;5043886;28;19924;-82
2023/05/17 12:10:58;;;;;;;;;;;;;;;25.62;nan;102252.97;5046443;28;20053;-80
2023/05/17 12:13:26;;;;;;;;;;;;;;;25.50;nan;102258.22;5046078;28;20042;-80
2023/05/17 12:15:55;;;;;;;;;;;;;;;25.43;nan;102257.84;5047076;28;20215;-81
2023/05/17 12:18:20;;;;;;;;;;;;;;;25.59;nan;102254.41;5048986;28;20062;-82
2023/05/17 12:20:53;;;;;;;;;;;;;;;25.60;nan;102263.44;5046079;28;20386;-82
2023/05/17 12:23:24;;;;;;;;;;;;;;;25.70;nan;102260.47;5048989;28;19920;-82
2023/05/17 12:25:49;;;;;;;;;;;;;;;25.72;nan;102276.63;5048255;28;19917;-80
2023/05/17 12:28:17;;;;;;;;;;;;;;;25.84;nan;102277.66;5047110;28;19917;-80
2023/05/17 12:30:43;;;;;;;;;;;;;;;26.07;nan;102275.69;5047432;28;19917;-81
2023/05/17 12:33:08;;;;;;;;;;;;;;;26.31;nan;102267.06;5048761;28;20062;-81
2023/05/17 12:35:34;;;;;;;;;;;;;;;26.42;nan;102279.41;5048153;28;19943;-80
2023/05/17 12:38:00;;;;;;;;;;;;;;;26.38;nan;102289.41;5047872;28;19970;-81
2023/05/17 12:40:26;;;;;;;;;;;;;;;26.39;nan;102280.06;5048633;28;19969;-81
2023/05/17 12:42:59;;;;;;;;;;;;;;;26.35;nan;102286.50;5045865;28;20023;-83
2023/05/17 12:45:25;;;;;;;;;;;;;;;26.39;nan;102280.06;5048809;28;19960;-81
2023/05/17 12:47:50;;;;;;;;;;;;;;;26.63;nan;102284.31;5047544;28;19964;-81
2023/05/17 12:50:24;;;;;;;;;;;;;;;26.51;nan;102290.44;5048462;28;19916;-81
2023/05/17 12:52:50;;;;;;;;;;;;;;;26.18;nan;102279.75;5046015;28;20373;-82